sensor_id;sensor_type;location;lat;lon;timestamp;P1;durP1;ratioP1;P2;durP2;ratioP2
45043;SDS011;30784;48.490;9.688;2023-02-28T00:01:07;7.03;;;2.20;;
45043;SDS011;30784;48.490;9.688;2023-02-28T00:03:32;8.43;;;2.97;;
45043;SDS011;30784;48.490;9.688;2023-02-28T00:06:00;7.70;;;2.55;;
45043;SDS011;30784;48.490;9.688;2023-02-28T00:08:27;6.93;;;2.10;;
45043;SDS011;30784;48.490;9.688;2023-02-28T00:10:53;6.47;;;2.10;;
45043;SDS011;30784;48.490;9.688;2023-02-28T00:13:18;6.65;;;1.90;;
45043;SDS011;30784;48.490;9.688;2023-02-28T00:15:44;6.18;;;1.90;;
45043;SDS011;30784;48.490;9.688;2023-02-28T00:18:10;6.47;;;2.00;;
45043;SDS011;30784;48.490;9.688;2023-02-28T00:20:36;7.82;;;2.28;;
45043;SDS011;30784;48.490;9.688;2023-02-28T00:23:02;7.93;;;2.25;;
45043;SDS011;30784;48.490;9.688;2023-02-28T00:25:28;7.68;;;2.10;;
45043;SDS011;30784;48.490;9.688;2023-02-28T00:27:53;6.13;;;2.00;;
45043;SDS011;30784;48.490;9.688;2023-02-28T00:30:20;6.60;;;2.00;;
45043;SDS011;30784;48.490;9.688;2023-02-28T00:32:47;7.75;;;2.05;;
45043;SDS011;30784;48.490;9.688;2023-02-28T00:35:13;7.55;;;2.10;;
45043;SDS011;30784;48.490;9.688;2023-02-28T00:37:39;5.47;;;1.85;;
45043;SDS011;30784;48.490;9.688;2023-02-28T00:40:05;6.13;;;1.92;;
45043;SDS011;30784;48.490;9.688;2023-02-28T00:42:32;6.53;;;1.98;;
45043;SDS011;30784;48.490;9.688;2023-02-28T00:44:59;8.38;;;2.50;;
45043;SDS011;30784;48.490;9.688;2023-02-28T00:47:25;7.28;;;2.05;;
45043;SDS011;30784;48.490;9.688;2023-02-28T00:49:50;6.60;;;2.28;;
45043;SDS011;30784;48.490;9.688;2023-02-28T00:52:16;6.63;;;2.22;;
45043;SDS011;30784;48.490;9.688;2023-02-28T00:54:41;6.65;;;2.53;;
45043;SDS011;30784;48.490;9.688;2023-02-28T00:57:07;8.68;;;3.17;;
45043;SDS011;30784;48.490;9.688;2023-02-28T00:59:32;7.80;;;2.60;;
45043;SDS011;30784;48.490;9.688;2023-02-28T01:01:59;5.70;;;1.90;;
45043;SDS011;30784;48.490;9.688;2023-02-28T01:04:25;6.13;;;2.05;;
45043;SDS011;30784;48.490;9.688;2023-02-28T01:06:50;7.53;;;2.20;;
45043;SDS011;30784;48.490;9.688;2023-02-28T01:09:16;11.77;;;2.05;;
45043;SDS011;30784;48.490;9.688;2023-02-28T01:11:42;6.10;;;2.10;;
45043;SDS011;30784;48.490;9.688;2023-02-28T01:14:09;9.85;;;2.30;;
45043;SDS011;30784;48.490;9.688;2023-02-28T01:16:38;7.18;;;2.30;;
45043;SDS011;30784;48.490;9.688;2023-02-28T01:19:03;7.32;;;2.20;;
45043;SDS011;30784;48.490;9.688;2023-02-28T01:21:29;5.35;;;2.00;;
45043;SDS011;30784;48.490;9.688;2023-02-28T01:23:56;7.57;;;2.03;;
45043;SDS011;30784;48.490;9.688;2023-02-28T01:26:22;5.63;;;2.05;;
45043;SDS011;30784;48.490;9.688;2023-02-28T01:28:48;6.32;;;2.08;;
45043;SDS011;30784;48.490;9.688;2023-02-28T01:31:15;7.80;;;2.63;;
45043;SDS011;30784;48.490;9.688;2023-02-28T01:33:41;8.57;;;2.17;;
45043;SDS011;30784;48.490;9.688;2023-02-28T01:36:13;9.02;;;2.38;;
45043;SDS011;30784;48.490;9.688;2023-02-28T01:38:40;6.90;;;1.88;;
45043;SDS011;30784;48.490;9.688;2023-02-28T01:41:07;8.25;;;2.60;;
45043;SDS011;30784;48.490;9.688;2023-02-28T01:46:10;7.93;;;2.20;;
45043;SDS011;30784;48.490;9.688;2023-02-28T01:48:38;7.55;;;2.30;;
45043;SDS011;30784;48.490;9.688;2023-02-28T01:51:34;6.82;;;2.22;;
45043;SDS011;30784;48.490;9.688;2023-02-28T01:54:25;8.02;;;3.08;;
45043;SDS011;30784;48.490;9.688;2023-02-28T01:56:55;7.15;;;2.22;;
45043;SDS011;30784;48.490;9.688;2023-02-28T01:59:33;5.53;;;1.80;;
45043;SDS011;30784;48.490;9.688;2023-02-28T02:02:03;7.30;;;2.53;;
45043;SDS011;30784;48.490;9.688;2023-02-28T02:04:32;7.32;;;2.30;;
45043;SDS011;30784;48.490;9.688;2023-02-28T02:07:02;7.78;;;2.42;;
45043;SDS011;30784;48.490;9.688;2023-02-28T02:09:28;6.90;;;2.50;;
45043;SDS011;30784;48.490;9.688;2023-02-28T02:11:54;6.95;;;2.10;;
45043;SDS011;30784;48.490;9.688;2023-02-28T02:25:28;8.45;;;2.88;;
45043;SDS011;30784;48.490;9.688;2023-02-28T02:38:27;6.80;;;2.33;;
45043;SDS011;30784;48.490;9.688;2023-02-28T02:43:46;7.13;;;2.28;;
45043;SDS011;30784;48.490;9.688;2023-02-28T02:46:25;8.20;;;2.33;;
45043;SDS011;30784;48.490;9.688;2023-02-28T02:48:54;7.03;;;2.33;;
45043;SDS011;30784;48.490;9.688;2023-02-28T02:51:22;8.05;;;2.67;;
45043;SDS011;30784;48.490;9.688;2023-02-28T02:53:50;7.00;;;2.40;;
45043;SDS011;30784;48.490;9.688;2023-02-28T02:56:24;7.07;;;2.70;;
45043;SDS011;30784;48.490;9.688;2023-02-28T02:58:54;8.65;;;2.60;;
45043;SDS011;30784;48.490;9.688;2023-02-28T03:01:26;6.95;;;2.22;;
45043;SDS011;30784;48.490;9.688;2023-02-28T03:03:55;7.60;;;2.47;;
45043;SDS011;30784;48.490;9.688;2023-02-28T03:06:32;7.72;;;2.72;;
45043;SDS011;30784;48.490;9.688;2023-02-28T03:08:58;8.48;;;2.92;;
45043;SDS011;30784;48.490;9.688;2023-02-28T03:11:25;8.30;;;2.40;;
45043;SDS011;30784;48.490;9.688;2023-02-28T03:13:55;7.78;;;2.70;;
45043;SDS011;30784;48.490;9.688;2023-02-28T03:16:46;7.65;;;2.65;;
45043;SDS011;30784;48.490;9.688;2023-02-28T03:19:47;7.68;;;2.80;;
45043;SDS011;30784;48.490;9.688;2023-02-28T03:22:29;7.88;;;2.60;;
45043;SDS011;30784;48.490;9.688;2023-02-28T03:30:21;7.95;;;2.67;;
45043;SDS011;30784;48.490;9.688;2023-02-28T03:33:17;7.90;;;3.10;;
45043;SDS011;30784;48.490;9.688;2023-02-28T03:36:04;8.07;;;2.85;;
45043;SDS011;30784;48.490;9.688;2023-02-28T03:38:50;8.00;;;2.90;;
45043;SDS011;30784;48.490;9.688;2023-02-28T03:41:47;6.70;;;2.85;;
45043;SDS011;30784;48.490;9.688;2023-02-28T03:44:22;7.57;;;2.78;;
45043;SDS011;30784;48.490;9.688;2023-02-28T03:46:56;8.93;;;2.80;;
45043;SDS011;30784;48.490;9.688;2023-02-28T03:49:27;7.45;;;3.00;;
45043;SDS011;30784;48.490;9.688;2023-02-28T03:51:59;8.68;;;3.15;;
45043;SDS011;30784;48.490;9.688;2023-02-28T03:54:29;9.13;;;3.03;;
45043;SDS011;30784;48.490;9.688;2023-02-28T04:02:43;9.68;;;3.47;;
45043;SDS011;30784;48.490;9.688;2023-02-28T04:05:09;8.07;;;3.00;;
45043;SDS011;30784;48.490;9.688;2023-02-28T04:07:35;7.78;;;3.30;;
45043;SDS011;30784;48.490;9.688;2023-02-28T04:10:01;8.10;;;3.05;;
45043;SDS011;30784;48.490;9.688;2023-02-28T04:12:27;7.90;;;3.30;;
45043;SDS011;30784;48.490;9.688;2023-02-28T04:14:53;8.60;;;3.20;;
45043;SDS011;30784;48.490;9.688;2023-02-28T04:17:18;8.38;;;3.22;;
45043;SDS011;30784;48.490;9.688;2023-02-28T04:19:44;8.23;;;3.40;;
45043;SDS011;30784;48.490;9.688;2023-02-28T04:22:10;9.75;;;3.40;;
45043;SDS011;30784;48.490;9.688;2023-02-28T04:24:35;9.07;;;3.42;;
45043;SDS011;30784;48.490;9.688;2023-02-28T04:27:01;15.20;;;3.95;;
45043;SDS011;30784;48.490;9.688;2023-02-28T04:29:28;9.88;;;3.50;;
45043;SDS011;30784;48.490;9.688;2023-02-28T04:31:56;8.43;;;3.60;;
45043;SDS011;30784;48.490;9.688;2023-02-28T04:34:23;8.25;;;3.58;;
45043;SDS011;30784;48.490;9.688;2023-02-28T04:36:52;8.80;;;3.63;;
45043;SDS011;30784;48.490;9.688;2023-02-28T04:39:20;7.75;;;3.28;;
45043;SDS011;30784;48.490;9.688;2023-02-28T04:41:47;9.02;;;3.92;;
45043;SDS011;30784;48.490;9.688;2023-02-28T04:44:12;8.30;;;3.75;;
45043;SDS011;30784;48.490;9.688;2023-02-28T04:46:39;9.93;;;3.88;;
45043;SDS011;30784;48.490;9.688;2023-02-28T04:49:04;9.20;;;3.60;;
45043;SDS011;30784;48.490;9.688;2023-02-28T04:51:30;9.23;;;3.88;;
45043;SDS011;30784;48.490;9.688;2023-02-28T04:53:55;10.77;;;4.20;;
45043;SDS011;30784;48.490;9.688;2023-02-28T04:56:21;9.38;;;4.28;;
45043;SDS011;30784;48.490;9.688;2023-02-28T04:58:47;8.65;;;3.88;;
45043;SDS011;30784;48.490;9.688;2023-02-28T05:01:18;9.20;;;3.97;;
45043;SDS011;30784;48.490;9.688;2023-02-28T05:03:43;8.35;;;3.70;;
45043;SDS011;30784;48.490;9.688;2023-02-28T05:06:10;10.52;;;4.38;;
45043;SDS011;30784;48.490;9.688;2023-02-28T05:08:37;9.82;;;3.90;;
45043;SDS011;30784;48.490;9.688;2023-02-28T05:11:03;10.05;;;4.63;;
45043;SDS011;30784;48.490;9.688;2023-02-28T05:13:31;10.07;;;4.53;;
45043;SDS011;30784;48.490;9.688;2023-02-28T05:15:56;8.45;;;3.90;;
45043;SDS011;30784;48.490;9.688;2023-02-28T05:18:22;9.15;;;3.97;;
45043;SDS011;30784;48.490;9.688;2023-02-28T05:20:47;11.35;;;4.55;;
45043;SDS011;30784;48.490;9.688;2023-02-28T05:23:13;9.77;;;4.43;;
45043;SDS011;30784;48.490;9.688;2023-02-28T05:25:40;11.38;;;4.50;;
45043;SDS011;30784;48.490;9.688;2023-02-28T05:28:06;9.45;;;4.20;;
45043;SDS011;30784;48.490;9.688;2023-02-28T05:30:32;10.25;;;4.63;;
45043;SDS011;30784;48.490;9.688;2023-02-28T05:32:58;10.48;;;4.70;;
45043;SDS011;30784;48.490;9.688;2023-02-28T05:35:24;11.15;;;4.90;;
45043;SDS011;30784;48.490;9.688;2023-02-28T05:37:50;10.45;;;4.60;;
45043;SDS011;30784;48.490;9.688;2023-02-28T05:40:16;10.70;;;4.38;;
45043;SDS011;30784;48.490;9.688;2023-02-28T05:42:42;10.75;;;4.70;;
45043;SDS011;30784;48.490;9.688;2023-02-28T05:45:08;11.55;;;5.03;;
45043;SDS011;30784;48.490;9.688;2023-02-28T05:47:34;10.18;;;4.90;;
45043;SDS011;30784;48.490;9.688;2023-02-28T05:50:00;9.85;;;5.15;;
45043;SDS011;30784;48.490;9.688;2023-02-28T05:52:27;10.05;;;4.93;;
45043;SDS011;30784;48.490;9.688;2023-02-28T05:54:53;11.05;;;5.50;;
45043;SDS011;30784;48.490;9.688;2023-02-28T05:57:18;12.65;;;5.05;;
45043;SDS011;30784;48.490;9.688;2023-02-28T05:59:44;10.52;;;4.95;;
45043;SDS011;30784;48.490;9.688;2023-02-28T06:02:14;11.15;;;4.68;;
45043;SDS011;30784;48.490;9.688;2023-02-28T06:04:41;10.98;;;5.10;;
45043;SDS011;30784;48.490;9.688;2023-02-28T06:07:08;10.88;;;5.40;;
45043;SDS011;30784;48.490;9.688;2023-02-28T06:09:34;10.43;;;4.95;;
45043;SDS011;30784;48.490;9.688;2023-02-28T06:12:00;10.10;;;4.60;;
45043;SDS011;30784;48.490;9.688;2023-02-28T06:14:28;9.63;;;4.63;;
45043;SDS011;30784;48.490;9.688;2023-02-28T06:16:56;11.93;;;5.25;;
45043;SDS011;30784;48.490;9.688;2023-02-28T06:19:21;10.77;;;5.43;;
45043;SDS011;30784;48.490;9.688;2023-02-28T06:21:49;11.90;;;5.13;;
45043;SDS011;30784;48.490;9.688;2023-02-28T06:24:17;10.48;;;4.85;;
45043;SDS011;30784;48.490;9.688;2023-02-28T06:26:42;11.68;;;4.93;;
45043;SDS011;30784;48.490;9.688;2023-02-28T06:29:08;12.50;;;5.78;;
45043;SDS011;30784;48.490;9.688;2023-02-28T06:31:33;12.65;;;5.95;;
45043;SDS011;30784;48.490;9.688;2023-02-28T06:33:59;11.50;;;5.55;;
45043;SDS011;30784;48.490;9.688;2023-02-28T06:36:25;16.63;;;7.55;;
45043;SDS011;30784;48.490;9.688;2023-02-28T06:38:50;12.38;;;6.35;;
45043;SDS011;30784;48.490;9.688;2023-02-28T06:41:20;13.57;;;6.10;;
45043;SDS011;30784;48.490;9.688;2023-02-28T06:43:46;13.57;;;6.70;;
45043;SDS011;30784;48.490;9.688;2023-02-28T06:46:13;11.65;;;6.40;;
45043;SDS011;30784;48.490;9.688;2023-02-28T06:48:39;14.32;;;7.10;;
45043;SDS011;30784;48.490;9.688;2023-02-28T06:51:09;14.48;;;7.50;;
45043;SDS011;30784;48.490;9.688;2023-02-28T06:53:38;15.55;;;6.65;;
45043;SDS011;30784;48.490;9.688;2023-02-28T06:56:06;12.27;;;6.32;;
45043;SDS011;30784;48.490;9.688;2023-02-28T06:58:33;13.32;;;6.88;;
45043;SDS011;30784;48.490;9.688;2023-02-28T07:00:59;14.75;;;7.05;;
45043;SDS011;30784;48.490;9.688;2023-02-28T07:03:25;13.20;;;6.43;;
45043;SDS011;30784;48.490;9.688;2023-02-28T07:05:50;13.55;;;6.68;;
45043;SDS011;30784;48.490;9.688;2023-02-28T07:08:16;13.90;;;7.35;;
45043;SDS011;30784;48.490;9.688;2023-02-28T07:10:42;13.57;;;7.78;;
45043;SDS011;30784;48.490;9.688;2023-02-28T07:13:08;13.60;;;6.85;;
45043;SDS011;30784;48.490;9.688;2023-02-28T07:15:35;13.00;;;7.03;;
45043;SDS011;30784;48.490;9.688;2023-02-28T07:18:01;12.68;;;6.60;;
45043;SDS011;30784;48.490;9.688;2023-02-28T07:20:28;12.88;;;6.55;;
45043;SDS011;30784;48.490;9.688;2023-02-28T07:22:53;13.27;;;6.78;;
45043;SDS011;30784;48.490;9.688;2023-02-28T07:25:22;14.52;;;7.22;;
45043;SDS011;30784;48.490;9.688;2023-02-28T07:27:50;15.07;;;7.40;;
45043;SDS011;30784;48.490;9.688;2023-02-28T07:30:16;15.23;;;7.55;;
45043;SDS011;30784;48.490;9.688;2023-02-28T07:32:42;13.57;;;7.47;;
45043;SDS011;30784;48.490;9.688;2023-02-28T07:35:07;13.55;;;7.10;;
45043;SDS011;30784;48.490;9.688;2023-02-28T07:37:33;15.75;;;7.88;;
45043;SDS011;30784;48.490;9.688;2023-02-28T07:40:04;13.27;;;7.18;;
45043;SDS011;30784;48.490;9.688;2023-02-28T07:42:33;19.30;;;9.10;;
45043;SDS011;30784;48.490;9.688;2023-02-28T07:45:02;15.65;;;7.88;;
45043;SDS011;30784;48.490;9.688;2023-02-28T07:47:29;16.05;;;7.80;;
45043;SDS011;30784;48.490;9.688;2023-02-28T07:49:55;15.23;;;8.45;;
45043;SDS011;30784;48.490;9.688;2023-02-28T07:52:21;15.63;;;8.82;;
45043;SDS011;30784;48.490;9.688;2023-02-28T07:54:48;15.65;;;8.23;;
45043;SDS011;30784;48.490;9.688;2023-02-28T07:57:14;17.42;;;8.30;;
45043;SDS011;30784;48.490;9.688;2023-02-28T07:59:39;16.58;;;8.23;;
45043;SDS011;30784;48.490;9.688;2023-02-28T08:02:05;15.38;;;7.50;;
45043;SDS011;30784;48.490;9.688;2023-02-28T08:04:33;15.35;;;7.50;;
45043;SDS011;30784;48.490;9.688;2023-02-28T08:06:59;15.35;;;7.50;;
45043;SDS011;30784;48.490;9.688;2023-02-28T08:09:24;15.27;;;7.60;;
45043;SDS011;30784;48.490;9.688;2023-02-28T08:11:50;15.10;;;7.40;;
45043;SDS011;30784;48.490;9.688;2023-02-28T08:14:16;12.75;;;6.95;;
45043;SDS011;30784;48.490;9.688;2023-02-28T08:16:42;15.43;;;7.65;;
45043;SDS011;30784;48.490;9.688;2023-02-28T08:19:08;20.50;;;10.35;;
45043;SDS011;30784;48.490;9.688;2023-02-28T08:21:34;54.65;;;23.60;;
45043;SDS011;30784;48.490;9.688;2023-02-28T08:23:59;64.00;;;27.60;;
45043;SDS011;30784;48.490;9.688;2023-02-28T08:26:25;25.13;;;11.23;;
45043;SDS011;30784;48.490;9.688;2023-02-28T08:28:51;17.65;;;8.88;;
45043;SDS011;30784;48.490;9.688;2023-02-28T08:31:17;14.30;;;7.55;;
45043;SDS011;30784;48.490;9.688;2023-02-28T08:33:43;14.55;;;7.75;;
45043;SDS011;30784;48.490;9.688;2023-02-28T08:36:09;13.52;;;7.47;;
45043;SDS011;30784;48.490;9.688;2023-02-28T08:38:35;14.45;;;7.85;;
45043;SDS011;30784;48.490;9.688;2023-02-28T08:41:03;18.20;;;8.65;;
45043;SDS011;30784;48.490;9.688;2023-02-28T08:43:32;19.38;;;9.45;;
45043;SDS011;30784;48.490;9.688;2023-02-28T08:45:58;22.80;;;10.35;;
45043;SDS011;30784;48.490;9.688;2023-02-28T08:48:24;15.63;;;7.70;;
45043;SDS011;30784;48.490;9.688;2023-02-28T08:50:58;15.10;;;8.07;;
45043;SDS011;30784;48.490;9.688;2023-02-28T08:53:25;15.05;;;7.97;;
45043;SDS011;30784;48.490;9.688;2023-02-28T08:56:04;15.43;;;8.90;;
45043;SDS011;30784;48.490;9.688;2023-02-28T08:58:32;14.90;;;7.57;;
45043;SDS011;30784;48.490;9.688;2023-02-28T09:00:59;14.98;;;7.10;;
45043;SDS011;30784;48.490;9.688;2023-02-28T09:03:25;15.70;;;8.05;;
45043;SDS011;30784;48.490;9.688;2023-02-28T09:05:59;15.13;;;7.75;;
45043;SDS011;30784;48.490;9.688;2023-02-28T09:08:27;14.48;;;8.13;;
45043;SDS011;30784;48.490;9.688;2023-02-28T09:10:55;16.30;;;8.35;;
45043;SDS011;30784;48.490;9.688;2023-02-28T09:13:22;15.48;;;7.80;;
45043;SDS011;30784;48.490;9.688;2023-02-28T09:15:52;14.97;;;7.20;;
45043;SDS011;30784;48.490;9.688;2023-02-28T09:18:18;14.80;;;7.63;;
45043;SDS011;30784;48.490;9.688;2023-02-28T09:20:43;15.35;;;8.50;;
45043;SDS011;30784;48.490;9.688;2023-02-28T09:23:10;15.73;;;7.70;;
45043;SDS011;30784;48.490;9.688;2023-02-28T09:25:37;15.48;;;7.43;;
45043;SDS011;30784;48.490;9.688;2023-02-28T09:28:09;14.88;;;8.10;;
45043;SDS011;30784;48.490;9.688;2023-02-28T09:30:34;14.98;;;7.60;;
45043;SDS011;30784;48.490;9.688;2023-02-28T09:33:00;18.02;;;8.50;;
45043;SDS011;30784;48.490;9.688;2023-02-28T09:35:25;16.88;;;8.43;;
45043;SDS011;30784;48.490;9.688;2023-02-28T09:37:51;17.73;;;8.55;;
45043;SDS011;30784;48.490;9.688;2023-02-28T09:40:21;16.77;;;8.30;;
45043;SDS011;30784;48.490;9.688;2023-02-28T09:42:49;14.45;;;8.18;;
45043;SDS011;30784;48.490;9.688;2023-02-28T09:45:28;12.03;;;6.40;;
45043;SDS011;30784;48.490;9.688;2023-02-28T09:48:11;15.50;;;7.90;;
45043;SDS011;30784;48.490;9.688;2023-02-28T09:51:21;16.65;;;8.27;;
45043;SDS011;30784;48.490;9.688;2023-02-28T09:53:40;17.00;;;8.80;;
45043;SDS011;30784;48.490;9.688;2023-02-28T09:58:57;18.77;;;8.63;;
45043;SDS011;30784;48.490;9.688;2023-02-28T10:01:32;16.52;;;8.32;;
45043;SDS011;30784;48.490;9.688;2023-02-28T10:04:13;19.48;;;9.85;;
45043;SDS011;30784;48.490;9.688;2023-02-28T10:07:00;18.70;;;9.70;;
45043;SDS011;30784;48.490;9.688;2023-02-28T10:09:32;19.15;;;10.25;;
45043;SDS011;30784;48.490;9.688;2023-02-28T10:12:02;18.52;;;9.30;;
45043;SDS011;30784;48.490;9.688;2023-02-28T10:14:31;19.48;;;9.88;;
45043;SDS011;30784;48.490;9.688;2023-02-28T10:17:03;18.87;;;9.90;;
45043;SDS011;30784;48.490;9.688;2023-02-28T10:19:38;23.50;;;12.20;;
45043;SDS011;30784;48.490;9.688;2023-02-28T10:22:15;20.23;;;10.40;;
45043;SDS011;30784;48.490;9.688;2023-02-28T10:24:49;16.70;;;8.77;;
45043;SDS011;30784;48.490;9.688;2023-02-28T10:27:20;16.55;;;9.05;;
45043;SDS011;30784;48.490;9.688;2023-02-28T10:29:51;16.38;;;8.27;;
45043;SDS011;30784;48.490;9.688;2023-02-28T10:32:19;20.20;;;12.23;;
45043;SDS011;30784;48.490;9.688;2023-02-28T10:34:51;19.67;;;11.53;;
45043;SDS011;30784;48.490;9.688;2023-02-28T10:37:21;15.63;;;8.98;;
45043;SDS011;30784;48.490;9.688;2023-02-28T10:39:47;15.13;;;8.80;;
45043;SDS011;30784;48.490;9.688;2023-02-28T10:42:28;16.58;;;9.02;;
45043;SDS011;30784;48.490;9.688;2023-02-28T10:45:14;16.83;;;9.20;;
45043;SDS011;30784;48.490;9.688;2023-02-28T10:47:52;15.85;;;8.43;;
45043;SDS011;30784;48.490;9.688;2023-02-28T10:58:26;16.70;;;8.65;;
45043;SDS011;30784;48.490;9.688;2023-02-28T11:00:54;15.70;;;8.57;;
45043;SDS011;30784;48.490;9.688;2023-02-28T11:03:31;18.13;;;9.07;;
45043;SDS011;30784;48.490;9.688;2023-02-28T11:05:58;17.25;;;9.25;;
45043;SDS011;30784;48.490;9.688;2023-02-28T11:08:29;18.08;;;9.65;;
45043;SDS011;30784;48.490;9.688;2023-02-28T11:10:56;20.35;;;10.30;;
45043;SDS011;30784;48.490;9.688;2023-02-28T11:13:33;21.63;;;10.02;;
45043;SDS011;30784;48.490;9.688;2023-02-28T11:16:04;25.30;;;13.02;;
45043;SDS011;30784;48.490;9.688;2023-02-28T11:18:36;18.63;;;9.23;;
45043;SDS011;30784;48.490;9.688;2023-02-28T11:21:18;23.20;;;10.38;;
45043;SDS011;30784;48.490;9.688;2023-02-28T11:23:47;22.88;;;11.05;;
45043;SDS011;30784;48.490;9.688;2023-02-28T11:26:15;17.55;;;9.63;;
45043;SDS011;30784;48.490;9.688;2023-02-28T11:29:08;17.75;;;9.57;;
45043;SDS011;30784;48.490;9.688;2023-02-28T11:32:00;22.58;;;10.95;;
45043;SDS011;30784;48.490;9.688;2023-02-28T11:34:34;18.88;;;10.27;;
45043;SDS011;30784;48.490;9.688;2023-02-28T11:37:01;17.38;;;8.77;;
45043;SDS011;30784;48.490;9.688;2023-02-28T11:39:30;16.35;;;8.38;;
45043;SDS011;30784;48.490;9.688;2023-02-28T11:42:00;21.25;;;11.27;;
45043;SDS011;30784;48.490;9.688;2023-02-28T11:44:57;15.20;;;8.93;;
45043;SDS011;30784;48.490;9.688;2023-02-28T11:47:55;14.60;;;8.23;;
45043;SDS011;30784;48.490;9.688;2023-02-28T11:50:42;15.68;;;8.55;;
45043;SDS011;30784;48.490;9.688;2023-02-28T11:56:10;14.85;;;8.27;;
45043;SDS011;30784;48.490;9.688;2023-02-28T12:01:42;13.93;;;8.05;;
45043;SDS011;30784;48.490;9.688;2023-02-28T12:06:52;14.57;;;7.72;;
45043;SDS011;30784;48.490;9.688;2023-02-28T12:12:03;14.82;;;8.15;;
45043;SDS011;30784;48.490;9.688;2023-02-28T12:14:46;14.10;;;7.60;;
45043;SDS011;30784;48.490;9.688;2023-02-28T12:17:37;12.83;;;7.53;;
45043;SDS011;30784;48.490;9.688;2023-02-28T12:22:59;13.45;;;7.60;;
45043;SDS011;30784;48.490;9.688;2023-02-28T12:28:20;16.05;;;8.20;;
45043;SDS011;30784;48.490;9.688;2023-02-28T12:30:58;15.75;;;8.32;;
45043;SDS011;30784;48.490;9.688;2023-02-28T12:33:32;14.40;;;7.45;;
45043;SDS011;30784;48.490;9.688;2023-02-28T12:36:03;14.00;;;7.38;;
45043;SDS011;30784;48.490;9.688;2023-02-28T12:38:36;14.65;;;7.63;;
45043;SDS011;30784;48.490;9.688;2023-02-28T12:44:09;16.92;;;7.50;;
45043;SDS011;30784;48.490;9.688;2023-02-28T12:46:43;13.23;;;7.57;;
45043;SDS011;30784;48.490;9.688;2023-02-28T12:49:16;12.95;;;7.40;;
45043;SDS011;30784;48.490;9.688;2023-02-28T12:51:50;12.82;;;7.43;;
45043;SDS011;30784;48.490;9.688;2023-02-28T12:54:37;11.85;;;6.90;;
45043;SDS011;30784;48.490;9.688;2023-02-28T12:57:36;14.40;;;7.78;;
45043;SDS011;30784;48.490;9.688;2023-02-28T13:00:28;13.40;;;7.45;;
45043;SDS011;30784;48.490;9.688;2023-02-28T13:08:41;13.90;;;7.53;;
45043;SDS011;30784;48.490;9.688;2023-02-28T13:13:58;15.27;;;7.90;;
45043;SDS011;30784;48.490;9.688;2023-02-28T13:16:28;13.52;;;7.10;;
45043;SDS011;30784;48.490;9.688;2023-02-28T13:19:29;13.25;;;7.80;;
45043;SDS011;30784;48.490;9.688;2023-02-28T13:21:57;14.93;;;7.33;;
45043;SDS011;30784;48.490;9.688;2023-02-28T13:27:37;14.40;;;7.88;;
45043;SDS011;30784;48.490;9.688;2023-02-28T13:33:19;13.38;;;7.13;;
45043;SDS011;30784;48.490;9.688;2023-02-28T13:35:59;12.82;;;6.80;;
45043;SDS011;30784;48.490;9.688;2023-02-28T13:38:53;12.35;;;7.22;;
45043;SDS011;30784;48.490;9.688;2023-02-28T13:46:27;13.05;;;7.15;;
45043;SDS011;30784;48.490;9.688;2023-02-28T13:48:53;11.25;;;6.70;;
45043;SDS011;30784;48.490;9.688;2023-02-28T13:51:27;13.25;;;7.18;;
45043;SDS011;30784;48.490;9.688;2023-02-28T13:56:56;15.20;;;6.72;;
45043;SDS011;30784;48.490;9.688;2023-02-28T14:00:02;13.15;;;6.47;;
45043;SDS011;30784;48.490;9.688;2023-02-28T14:05:21;10.98;;;6.65;;
45043;SDS011;30784;48.490;9.688;2023-02-28T14:07:52;12.10;;;6.78;;
45043;SDS011;30784;48.490;9.688;2023-02-28T14:10:22;13.18;;;6.65;;
45043;SDS011;30784;48.490;9.688;2023-02-28T14:12:52;12.52;;;6.97;;
45043;SDS011;30784;48.490;9.688;2023-02-28T14:15:34;13.88;;;7.75;;
45043;SDS011;30784;48.490;9.688;2023-02-28T14:18:01;13.85;;;7.10;;
45043;SDS011;30784;48.490;9.688;2023-02-28T14:20:31;14.27;;;6.90;;
45043;SDS011;30784;48.490;9.688;2023-02-28T14:23:06;13.27;;;6.60;;
45043;SDS011;30784;48.490;9.688;2023-02-28T14:34:17;14.80;;;7.30;;
45043;SDS011;30784;48.490;9.688;2023-02-28T14:36:52;12.65;;;6.93;;
45043;SDS011;30784;48.490;9.688;2023-02-28T14:39:19;13.10;;;7.18;;
45043;SDS011;30784;48.490;9.688;2023-02-28T14:41:47;15.77;;;7.00;;
45043;SDS011;30784;48.490;9.688;2023-02-28T14:44:31;12.93;;;7.05;;
45043;SDS011;30784;48.490;9.688;2023-02-28T14:46:57;13.48;;;7.35;;
45043;SDS011;30784;48.490;9.688;2023-02-28T14:49:31;12.60;;;6.57;;
45043;SDS011;30784;48.490;9.688;2023-02-28T14:54:34;13.23;;;6.75;;
45043;SDS011;30784;48.490;9.688;2023-02-28T14:57:00;13.02;;;6.38;;
45043;SDS011;30784;48.490;9.688;2023-02-28T14:59:33;11.90;;;6.82;;
45043;SDS011;30784;48.490;9.688;2023-02-28T15:02:14;12.65;;;6.70;;
45043;SDS011;30784;48.490;9.688;2023-02-28T15:04:39;13.40;;;6.85;;
45043;SDS011;30784;48.490;9.688;2023-02-28T15:07:07;14.80;;;6.90;;
45043;SDS011;30784;48.490;9.688;2023-02-28T15:09:37;12.60;;;6.45;;
45043;SDS011;30784;48.490;9.688;2023-02-28T15:12:03;11.68;;;6.40;;
45043;SDS011;30784;48.490;9.688;2023-02-28T15:14:29;11.75;;;6.68;;
45043;SDS011;30784;48.490;9.688;2023-02-28T15:16:56;12.45;;;6.35;;
45043;SDS011;30784;48.490;9.688;2023-02-28T15:19:32;13.13;;;6.50;;
45043;SDS011;30784;48.490;9.688;2023-02-28T15:22:02;11.82;;;6.28;;
45043;SDS011;30784;48.490;9.688;2023-02-28T15:24:37;14.45;;;6.72;;
45043;SDS011;30784;48.490;9.688;2023-02-28T15:27:20;12.23;;;6.38;;
45043;SDS011;30784;48.490;9.688;2023-02-28T15:29:56;11.88;;;6.95;;
45043;SDS011;30784;48.490;9.688;2023-02-28T15:34:54;15.77;;;6.38;;
45043;SDS011;30784;48.490;9.688;2023-02-28T15:39:56;12.23;;;6.22;;
45043;SDS011;30784;48.490;9.688;2023-02-28T15:42:30;11.77;;;6.40;;
45043;SDS011;30784;48.490;9.688;2023-02-28T15:44:56;12.05;;;6.30;;
45043;SDS011;30784;48.490;9.688;2023-02-28T15:47:23;12.48;;;6.57;;
45043;SDS011;30784;48.490;9.688;2023-02-28T15:49:52;13.70;;;7.20;;
45043;SDS011;30784;48.490;9.688;2023-02-28T15:52:24;11.77;;;6.18;;
45043;SDS011;30784;48.490;9.688;2023-02-28T15:55:38;13.23;;;6.80;;
45043;SDS011;30784;48.490;9.688;2023-02-28T15:57:57;11.65;;;6.50;;
45043;SDS011;30784;48.490;9.688;2023-02-28T16:00:30;20.35;;;9.77;;
45043;SDS011;30784;48.490;9.688;2023-02-28T16:02:57;15.98;;;8.57;;
45043;SDS011;30784;48.490;9.688;2023-02-28T16:05:29;11.85;;;6.50;;
45043;SDS011;30784;48.490;9.688;2023-02-28T16:08:17;13.23;;;6.15;;
45043;SDS011;30784;48.490;9.688;2023-02-28T16:10:42;17.55;;;8.85;;
45043;SDS011;30784;48.490;9.688;2023-02-28T16:13:08;15.80;;;9.05;;
45043;SDS011;30784;48.490;9.688;2023-02-28T16:15:42;14.18;;;8.32;;
45043;SDS011;30784;48.490;9.688;2023-02-28T16:20:36;13.30;;;6.70;;
45043;SDS011;30784;48.490;9.688;2023-02-28T16:23:01;12.40;;;6.93;;
45043;SDS011;30784;48.490;9.688;2023-02-28T16:25:34;12.93;;;6.85;;
45043;SDS011;30784;48.490;9.688;2023-02-28T16:28:04;13.32;;;7.07;;
45043;SDS011;30784;48.490;9.688;2023-02-28T16:30:35;13.32;;;6.68;;
45043;SDS011;30784;48.490;9.688;2023-02-28T16:33:01;13.10;;;6.70;;
45043;SDS011;30784;48.490;9.688;2023-02-28T16:35:26;14.00;;;6.95;;
45043;SDS011;30784;48.490;9.688;2023-02-28T16:37:52;12.77;;;6.35;;
45043;SDS011;30784;48.490;9.688;2023-02-28T16:40:19;11.93;;;6.22;;
45043;SDS011;30784;48.490;9.688;2023-02-28T16:42:50;14.18;;;6.50;;
45043;SDS011;30784;48.490;9.688;2023-02-28T16:45:23;12.43;;;6.55;;
45043;SDS011;30784;48.490;9.688;2023-02-28T16:47:51;11.48;;;6.00;;
45043;SDS011;30784;48.490;9.688;2023-02-28T16:50:18;12.63;;;6.75;;